Time;durP1;ratioP1;P1;durP2;ratioP2;P2;SDS_P1;SDS_P2;PMS_P1;PMS_P2;Temp;Humidity;BMP_temperature;BMP_pressure;BME280_temperature;BME280_humidity;BME280_pressure;Samples;Min_cycle;Max_cycle;Signal;HPM_P1;HPM_P2
2022/04/12 00:01:09;;;;;;;0.60;0.60;;;10.50;65.30;;;;;;5044744;28;20510;-77
2022/04/12 00:03:35;;;;;;;0.88;0.82;;;10.60;65.30;;;;;;5045361;28;20605;-78
2022/04/12 00:06:01;;;;;;;0.40;0.40;;;10.60;65.30;;;;;;5045310;28;20033;-82
2022/04/12 00:08:27;;;;;;;0.80;0.80;;;10.60;65.30;;;;;;5044281;28;20025;-76
2022/04/12 00:10:53;;;;;;;1.33;0.50;;;10.60;65.30;;;;;;5044902;28;20041;-77
2022/04/12 00:13:19;;;;;;;0.50;0.50;;;10.60;65.30;;;;;;5045421;28;20625;-74
2022/04/12 00:15:48;;;;;;;0.40;0.40;;;10.60;65.20;;;;;;5048109;28;20581;-74
2022/04/12 00:20:59;;;;;;;0.65;0.57;;;10.50;65.10;;;;;;5064342;28;20024;-74
2022/04/12 00:23:25;;;;;;;0.75;0.75;;;10.50;65.10;;;;;;5064100;28;20585;-73
2022/04/12 00:25:53;;;;;;;1.52;0.68;;;10.50;65.20;;;;;;5064206;28;20045;-75
2022/04/12 00:28:20;;;;;;;0.50;0.50;;;10.50;65.10;;;;;;5063945;28;20071;-73
2022/04/12 00:30:46;;;;;;;0.50;0.50;;;10.50;65.20;;;;;;5064843;28;20135;-75
2022/04/12 00:33:13;;;;;;;0.55;0.55;;;10.50;65.20;;;;;;5065110;28;20115;-76
2022/04/12 00:35:39;;;;;;;1.33;0.75;;;10.50;65.30;;;;;;5063900;28;20037;-73
2022/04/12 00:38:17;;;;;;;0.50;0.50;;;10.40;65.20;;;;;;5075983;28;20040;-75
2022/04/12 00:40:45;;;;;;;0.60;0.60;;;10.50;65.20;;;;;;5065105;28;20035;-75
2022/04/12 00:43:11;;;;;;;0.60;0.60;;;10.50;65.20;;;;;;5097144;28;20128;-75
2022/04/12 00:45:37;;;;;;;0.85;0.60;;;10.50;65.10;;;;;;5064710;28;20139;-76
2022/04/12 00:48:04;;;;;;;0.55;0.55;;;10.50;65.20;;;;;;5065235;28;20417;-76
2022/04/12 00:50:30;;;;;;;0.40;0.40;;;10.50;65.20;;;;;;5065524;28;20107;-76
2022/04/12 00:52:57;;;;;;;0.47;0.47;;;10.50;65.20;;;;;;5064729;28;20083;-76
2022/04/12 00:55:23;;;;;;;0.52;0.52;;;10.50;65.20;;;;;;5065553;28;20048;-76
2022/04/12 00:57:49;;;;;;;0.65;0.65;;;10.50;65.20;;;;;;5063556;28;20033;-77
2022/04/12 01:00:16;;;;;;;0.75;0.75;;;10.50;65.20;;;;;;5064157;28;20115;-77
2022/04/12 01:02:42;;;;;;;0.98;0.70;;;10.50;65.20;;;;;;5068641;28;20040;-75
2022/04/12 01:05:09;;;;;;;0.50;0.50;;;10.50;65.20;;;;;;5068643;28;20394;-75
2022/04/12 01:07:37;;;;;;;1.75;0.70;;;10.40;65.20;;;;;;5100226;28;20067;-75
2022/04/12 01:10:04;;;;;;;0.80;0.80;;;10.50;65.20;;;;;;5067668;28;20045;-75
2022/04/12 01:12:38;;;;;;;0.60;0.60;;;10.40;65.30;;;;;;5068351;28;20101;-75
2022/04/12 01:15:30;;;;;;;0.68;0.68;;;10.40;65.30;;;;;;5067953;28;20049;-76
2022/04/12 01:17:57;;;;;;;0.70;0.68;;;10.40;65.30;;;;;;5066594;28;20059;-77
2022/04/12 01:20:24;;;;;;;0.77;0.70;;;10.40;65.30;;;;;;5062535;28;20033;-76
2022/04/12 01:22:58;;;;;;;0.73;0.60;;;10.40;65.30;;;;;;5048405;28;20032;-78
2022/04/12 01:25:24;;;;;;;1.77;0.82;;;10.40;65.30;;;;;;5043706;28;20365;-76
2022/04/12 01:27:51;;;;;;;0.57;0.55;;;10.40;65.30;;;;;;5048726;28;20029;-76
2022/04/12 01:30:17;;;;;;;1.40;0.60;;;10.40;65.30;;;;;;5045941;28;20440;-76
2022/04/12 01:32:43;;;;;;;1.02;0.82;;;10.40;65.40;;;;;;5031119;28;20114;-76
2022/04/12 01:35:09;;;;;;;0.60;0.60;;;10.40;65.40;;;;;;5048767;28;20070;-77
2022/04/12 01:37:35;;;;;;;0.80;0.80;;;10.40;65.40;;;;;;5048097;28;20119;-76
2022/04/12 01:40:03;;;;;;;0.80;0.80;;;10.40;65.40;;;;;;5060371;28;20178;-76
2022/04/12 01:42:28;;;;;;;0.75;0.75;;;10.40;65.40;;;;;;5048679;28;20061;-76
2022/04/12 01:44:54;;;;;;;0.80;0.80;;;10.40;65.40;;;;;;5047285;28;20090;-75
2022/04/12 01:47:20;;;;;;;1.70;1.00;;;10.40;65.40;;;;;;5048486;28;20044;-76
2022/04/12 01:49:46;;;;;;;0.80;0.80;;;10.40;65.40;;;;;;5047439;28;20033;-76
2022/04/12 01:52:15;;;;;;;0.90;0.90;;;10.40;66.10;;;;;;5048096;28;20037;-77
2022/04/12 01:54:41;;;;;;;1.05;0.88;;;10.40;65.50;;;;;;5046280;28;20422;-77
2022/04/12 01:57:07;;;;;;;0.82;0.82;;;10.40;65.50;;;;;;5047404;28;20391;-79
2022/04/12 01:59:33;;;;;;;0.90;0.90;;;10.40;65.50;;;;;;5048397;28;20033;-74
2022/04/12 02:02:00;;;;;;;1.00;1.00;;;10.40;65.50;;;;;;5030169;28;20068;-75
2022/04/12 02:04:26;;;;;;;0.90;0.90;;;10.40;65.60;;;;;;5040409;28;20528;-75
2022/04/12 02:06:52;;;;;;;1.20;1.20;;;10.40;65.60;;;;;;5060708;28;20041;-77
2022/04/12 02:09:18;;;;;;;0.90;0.90;;;10.40;65.60;;;;;;5047245;28;20499;-76
2022/04/12 02:11:44;;;;;;;1.27;0.88;;;10.40;65.60;;;;;;5051752;28;20081;-77
2022/04/12 02:14:10;;;;;;;0.90;0.90;;;10.40;65.50;;;;;;5047050;28;20045;-76
2022/04/12 02:16:36;;;;;;;1.15;0.95;;;10.40;65.60;;;;;;5045592;28;20041;-76
2022/04/12 02:19:03;;;;;;;1.10;1.10;;;10.40;65.60;;;;;;5045708;28;20048;-76
2022/04/12 02:21:28;;;;;;;1.15;1.15;;;10.40;65.60;;;;;;5047219;28;20028;-76
2022/04/12 02:23:55;;;;;;;1.05;1.05;;;10.40;65.60;;;;;;5046835;28;20048;-76
2022/04/12 02:26:21;;;;;;;1.00;1.00;;;10.40;65.60;;;;;;5047021;28;20462;-76
2022/04/12 02:28:47;;;;;;;0.90;0.90;;;10.40;65.70;;;;;;5046536;28;20100;-76
2022/04/12 02:31:13;;;;;;;1.17;0.88;;;10.40;65.70;;;;;;5047299;28;20029;-76
2022/04/12 02:33:39;;;;;;;0.95;0.95;;;10.40;65.70;;;;;;5046351;28;20147;-76
2022/04/12 02:36:05;;;;;;;1.00;1.00;;;10.40;65.70;;;;;;5047053;28;20037;-76
2022/04/12 02:38:32;;;;;;;1.23;1.13;;;10.40;65.70;;;;;;5046415;28;20029;-77
2022/04/12 02:40:58;;;;;;;1.00;1.00;;;10.40;65.70;;;;;;5046489;28;20536;-76
2022/04/12 02:43:24;;;;;;;1.05;1.05;;;10.40;65.70;;;;;;5028347;28;20033;-76
2022/04/12 02:45:51;;;;;;;1.30;1.20;;;10.40;65.70;;;;;;5046402;28;20454;-76
2022/04/12 02:48:17;;;;;;;2.10;1.30;;;10.40;65.70;;;;;;5046314;28;20029;-75
2022/04/12 02:50:43;;;;;;;1.15;1.15;;;10.30;65.70;;;;;;5046986;28;20395;-74
2022/04/12 02:53:09;;;;;;;0.93;0.93;;;10.40;65.80;;;;;;5064536;28;20032;-75
2022/04/12 02:55:35;;;;;;;1.05;1.05;;;10.40;65.90;;;;;;5064935;28;20052;-75
2022/04/12 02:58:01;;;;;;;1.02;1.00;;;10.40;65.90;;;;;;5049783;28;20082;-74
2022/04/12 03:00:27;;;;;;;0.98;0.98;;;10.40;66.00;;;;;;5065673;28;20372;-74
2022/04/12 03:02:53;;;;;;;1.10;1.00;;;10.40;65.90;;;;;;5065666;28;20079;-74
2022/04/12 03:05:20;;;;;;;1.42;1.15;;;10.40;66.00;;;;;;5065105;28;20032;-73
2022/04/12 03:07:46;;;;;;;1.20;1.20;;;10.40;66.00;;;;;;5066503;28;20411;-74
2022/04/12 03:10:11;;;;;;;2.10;1.33;;;10.40;66.00;;;;;;5065657;28;20113;-75
2022/04/12 03:12:37;;;;;;;1.30;1.20;;;10.40;66.10;;;;;;5098452;28;20029;-75
2022/04/12 03:15:06;;;;;;;1.45;1.25;;;10.40;66.20;;;;;;5066231;28;20040;-75
2022/04/12 03:17:31;;;;;;;1.50;1.40;;;10.40;66.20;;;;;;5066234;28;20029;-74
2022/04/12 03:19:57;;;;;;;1.35;1.25;;;10.40;66.20;;;;;;5065119;28;20036;-75
2022/04/12 03:22:23;;;;;;;1.27;1.20;;;10.40;66.20;;;;;;5066102;28;20391;-75
2022/04/12 03:24:50;;;;;;;1.80;1.48;;;10.40;66.20;;;;;;5064093;28;20213;-74
2022/04/12 03:27:16;;;;;;;1.58;1.48;;;10.40;66.30;;;;;;5065139;28;20040;-73
2022/04/12 03:29:42;;;;;;;1.73;1.30;;;10.40;66.30;;;;;;5064312;28;20078;-75
2022/04/12 03:32:08;;;;;;;1.35;1.23;;;10.40;66.20;;;;;;5064412;28;20056;-74
2022/04/12 03:34:36;;;;;;;1.80;1.45;;;10.40;66.90;;;;;;5065555;28;20064;-74
2022/04/12 03:37:02;;;;;;;1.52;1.42;;;10.40;66.50;;;;;;5060681;28;20422;-74
2022/04/12 03:39:28;;;;;;;1.65;1.55;;;10.40;66.40;;;;;;5064819;28;20107;-73
2022/04/12 03:41:54;;;;;;;3.60;1.60;;;10.40;66.40;;;;;;5065824;28;20040;-74
2022/04/12 03:44:20;;;;;;;1.33;1.23;;;10.40;66.40;;;;;;5063970;28;20033;-74
2022/04/12 03:46:46;;;;;;;1.60;1.50;;;10.40;67.00;;;;;;5065910;28;20032;-77
2022/04/12 03:49:12;;;;;;;1.50;1.40;;;10.40;66.40;;;;;;5064799;28;20074;-76
2022/04/12 03:51:38;;;;;;;1.67;1.58;;;10.40;66.50;;;;;;5064995;28;20135;-75
2022/04/12 03:54:04;;;;;;;1.42;1.33;;;10.40;66.40;;;;;;5063450;28;20055;-76
2022/04/12 03:56:31;;;;;;;1.55;1.30;;;10.40;66.40;;;;;;5066499;28;20025;-77
2022/04/12 03:59:00;;;;;;;2.40;1.75;;;10.50;66.50;;;;;;5065161;28;20452;-77
2022/04/12 04:01:29;;;;;;;2.70;1.75;;;10.40;66.40;;;;;;5065177;28;20406;-76
2022/04/12 04:03:56;;;;;;;1.80;1.70;;;10.40;66.50;;;;;;5097497;28;21742;-77
2022/04/12 04:06:22;;;;;;;1.50;1.40;;;10.50;66.50;;;;;;5064974;28;20054;-76
2022/04/12 04:08:48;;;;;;;2.25;1.80;;;10.40;66.50;;;;;;5064726;28;20037;-76
2022/04/12 04:11:14;;;;;;;1.83;1.73;;;10.40;66.50;;;;;;5065135;28;20195;-78
2022/04/12 04:13:40;;;;;;;3.67;1.90;;;10.50;66.10;;;;;;5031179;28;20033;-78
2022/04/12 04:16:06;;;;;;;2.10;1.88;;;10.50;66.50;;;;;;5077888;28;20067;-74
2022/04/12 04:18:33;;;;;;;2.05;1.80;;;10.50;66.60;;;;;;5064852;28;20391;-75
2022/04/12 04:20:59;;;;;;;2.90;2.17;;;10.50;66.60;;;;;;5065112;28;20057;-75
2022/04/12 04:23:25;;;;;;;2.17;1.85;;;10.50;66.60;;;;;;5063581;28;20508;-74
2022/04/12 04:25:51;;;;;;;2.67;2.08;;;10.50;66.60;;;;;;5065295;28;20123;-74
2022/04/12 04:28:21;;;;;;;1.92;1.70;;;10.50;66.70;;;;;;5063810;28;20519;-74
2022/04/12 04:30:51;;;;;;;2.40;2.13;;;10.50;66.80;;;;;;5064237;28;20438;-75
2022/04/12 04:33:17;;;;;;;3.17;2.45;;;10.50;66.80;;;;;;5064037;28;20033;-75
2022/04/12 04:35:44;;;;;;;2.28;2.00;;;10.60;66.90;;;;;;5064563;28;20081;-78
2022/04/12 04:38:10;;;;;;;3.33;2.63;;;10.60;66.80;;;;;;5069203;28;20033;-74
2022/04/12 04:40:36;;;;;;;3.20;2.35;;;10.50;66.80;;;;;;5068781;28;20044;-75
2022/04/12 04:43:03;;;;;;;2.83;2.10;;;10.60;67.50;;;;;;5067475;28;20550;-74
2022/04/12 04:45:29;;;;;;;3.92;2.60;;;10.60;67.60;;;;;;5068874;28;20028;-75
2022/04/12 04:47:56;;;;;;;3.72;2.58;;;10.60;67.00;;;;;;5068115;28;20688;-77
2022/04/12 04:50:24;;;;;;;5.00;2.80;;;10.60;67.00;;;;;;5067049;28;20029;-78
2022/04/12 04:52:51;;;;;;;2.95;2.50;;;10.60;67.00;;;;;;5069339;28;20064;-76
2022/04/12 04:55:18;;;;;;;3.35;3.05;;;10.60;67.00;;;;;;5068132;28;20090;-75
2022/04/12 04:57:46;;;;;;;3.55;2.75;;;10.60;67.20;;;;;;5068399;28;20147;-76
2022/04/12 05:00:17;;;;;;;3.38;2.70;;;10.60;67.20;;;;;;5066806;28;20031;-78
2022/04/12 05:02:50;;;;;;;4.65;2.92;;;10.60;67.20;;;;;;5063569;28;20025;-74
2022/04/12 05:05:17;;;;;;;4.20;3.10;;;10.60;67.30;;;;;;5083231;28;20040;-78
2022/04/12 05:07:46;;;;;;;3.83;2.95;;;10.60;67.30;;;;;;5066655;28;20036;-77
2022/04/12 05:10:14;;;;;;;3.40;3.10;;;10.70;67.40;;;;;;5050452;28;20124;-77
2022/04/12 05:12:40;;;;;;;5.22;3.40;;;10.70;67.40;;;;;;5068448;28;20062;-85
2022/04/12 05:15:07;;;;;;;4.50;2.97;;;10.70;67.40;;;;;;5049467;28;20071;-85
2022/04/12 05:17:33;;;;;;;3.80;3.40;;;10.70;67.50;;;;;;5067498;28;20375;-83
2022/04/12 05:19:59;;;;;;;4.35;3.35;;;10.70;67.50;;;;;;5050939;28;20033;-82
2022/04/12 05:22:26;;;;;;;4.00;2.92;;;10.70;67.50;;;;;;5101572;28;20036;-81
2022/04/12 05:24:53;;;;;;;6.43;4.32;;;10.70;67.60;;;;;;5068381;28;20514;-80
2022/04/12 05:27:19;;;;;;;7.88;4.70;;;10.50;72.20;;;;;;5068377;28;20128;-78
2022/04/12 05:29:45;;;;;;;8.15;5.10;;;10.10;72.40;;;;;;5068955;28;20035;-78
2022/04/12 05:32:13;;;;;;;6.38;4.57;;;9.90;72.70;;;;;;5068621;28;20055;-79
2022/04/12 05:34:43;;;;;;;6.28;4.30;;;9.80;73.10;;;;;;5068204;28;20071;-78
2022/04/12 05:37:09;;;;;;;7.53;5.15;;;9.60;73.60;;;;;;5077699;28;20036;-79
2022/04/12 05:39:36;;;;;;;6.93;4.78;;;9.40;74.20;;;;;;5066811;28;20043;-78
2022/04/12 05:42:02;;;;;;;7.25;4.70;;;9.40;74.70;;;;;;5067506;28;20471;-80
2022/04/12 05:44:29;;;;;;;7.97;5.00;;;9.30;74.70;;;;;;5096754;28;20044;-79
2022/04/12 05:46:55;;;;;;;7.22;4.68;;;9.30;75.30;;;;;;5066199;28;20032;-82
2022/04/12 05:49:21;;;;;;;7.10;4.82;;;9.20;75.30;;;;;;5068062;28;20056;-81
2022/04/12 05:51:48;;;;;;;9.38;5.30;;;9.20;75.40;;;;;;5067385;28;20036;-80
2022/04/12 05:54:14;;;;;;;8.02;4.55;;;9.20;75.50;;;;;;5066347;28;20521;-79
2022/04/12 05:56:39;;;;;;;8.50;4.78;;;9.30;75.30;;;;;;5067924;28;20024;-82
2022/04/12 05:59:08;;;;;;;9.35;4.47;;;9.30;75.10;;;;;;5049982;28;20305;-81
2022/04/12 06:01:34;;;;;;;6.45;5.70;;;9.40;75.20;;;;;;5044864;28;20056;-80
2022/04/12 06:04:00;;;;;;;7.00;4.80;;;9.30;75.20;;;;;;5066859;28;20487;-80
2022/04/12 06:06:27;;;;;;;7.85;5.50;;;9.30;75.40;;;;;;5067207;28;20035;-79
2022/04/12 06:08:54;;;;;;;9.95;5.63;;;9.30;75.70;;;;;;5100447;28;20037;-80
2022/04/12 06:11:20;;;;;;;8.35;5.18;;;9.30;75.90;;;;;;5066812;28;20029;-80
2022/04/12 06:13:46;;;;;;;7.80;5.43;;;9.30;75.80;;;;;;5066378;28;20086;-80
2022/04/12 06:16:12;;;;;;;7.13;5.05;;;9.20;76.10;;;;;;5068024;28;20044;-80
2022/04/12 06:18:38;;;;;;;10.98;5.35;;;9.20;76.40;;;;;;5078099;28;20115;-79
2022/04/12 06:21:04;;;;;;;8.30;5.45;;;9.10;76.70;;;;;;5067819;28;20036;-79
2022/04/12 06:23:30;;;;;;;7.82;5.85;;;9.10;77.10;;;;;;5067641;28;20054;-78
2022/04/12 06:25:56;;;;;;;8.82;6.22;;;9.00;77.30;;;;;;5048415;28;20044;-78
2022/04/12 06:28:21;;;;;;;7.68;5.95;;;9.10;77.30;;;;;;5099456;28;20067;-81
2022/04/12 06:30:48;;;;;;;10.73;6.15;;;9.10;77.20;;;;;;5065828;28;20169;-81
2022/04/12 06:33:15;;;;;;;11.18;6.15;;;9.20;77.00;;;;;;5065348;28;20045;-81
2022/04/12 06:35:41;;;;;;;7.13;5.53;;;9.10;77.20;;;;;;5046913;28;21025;-79
2022/04/12 06:38:08;;;;;;;8.15;5.88;;;9.10;78.00;;;;;;5066952;28;20040;-80
2022/04/12 06:40:35;;;;;;;9.85;7.55;;;9.10;77.50;;;;;;5067194;28;20032;-81
2022/04/12 06:43:01;;;;;;;9.63;6.57;;;9.10;77.70;;;;;;5062110;28;20079;-80
2022/04/12 06:45:28;;;;;;;11.55;7.20;;;9.10;77.70;;;;;;5032352;28;20086;-83
2022/04/12 06:47:55;;;;;;;10.23;6.82;;;9.40;76.60;;;;;;5050161;28;20025;-84
2022/04/12 06:50:22;;;;;;;8.35;6.38;;;9.70;75.80;;;;;;5066775;28;20055;-83
2022/04/12 06:52:48;;;;;;;9.32;6.15;;;9.90;74.70;;;;;;5064218;28;20102;-83
2022/04/12 06:55:16;;;;;;;10.93;6.82;;;10.00;74.00;;;;;;5048219;28;20040;-80
2022/04/12 06:57:42;;;;;;;13.27;6.65;;;10.10;73.50;;;;;;5064905;28;20032;-81
2022/04/12 07:00:09;;;;;;;10.82;7.03;;;10.20;73.10;;;;;;5078573;28;20033;-81
2022/04/12 07:02:36;;;;;;;9.77;6.72;;;10.30;72.80;;;;;;5049696;28;20774;-80
2022/04/12 07:05:04;;;;;;;9.20;6.43;;;10.30;72.70;;;;;;5060172;28;20572;-85
2022/04/12 07:07:30;;;;;;;7.80;6.32;;;10.40;72.40;;;;;;5060685;28;20039;-81
2022/04/12 07:09:56;;;;;;;8.73;6.10;;;10.40;72.20;;;;;;5065901;28;20028;-81
2022/04/12 07:12:23;;;;;;;9.82;6.60;;;10.50;72.10;;;;;;5031854;28;20036;-78
2022/04/12 07:14:49;;;;;;;9.65;6.78;;;10.50;72.10;;;;;;5098915;28;20044;-79
2022/04/12 07:17:15;;;;;;;7.90;5.88;;;10.50;72.00;;;;;;5066601;28;20182;-80
2022/04/12 07:19:41;;;;;;;9.55;6.28;;;10.60;71.90;;;;;;5065962;28;20079;-79
2022/04/12 07:22:09;;;;;;;9.88;6.65;;;10.60;71.90;;;;;;5066445;28;20032;-81
2022/04/12 07:24:35;;;;;;;9.30;6.53;;;10.70;71.90;;;;;;5098537;28;20047;-81
2022/04/12 07:27:01;;;;;;;9.25;6.53;;;10.70;71.80;;;;;;5066457;28;20028;-78
2022/04/12 07:29:27;;;;;;;13.27;6.85;;;10.70;71.70;;;;;;5066230;28;20557;-84
2022/04/12 07:31:53;;;;;;;14.57;6.55;;;10.80;71.50;;;;;;5066232;28;20068;-79
2022/04/12 07:34:19;;;;;;;9.38;5.93;;;10.80;71.40;;;;;;5065266;28;20098;-88
2022/04/12 07:36:50;;;;;;;8.65;6.40;;;10.80;75.10;;;;;;5066938;28;20080;-88
2022/04/12 07:39:17;;;;;;;9.60;6.35;;;10.40;75.70;;;;;;5049051;28;20060;-86
2022/04/12 07:41:43;;;;;;;10.00;6.90;;;10.20;76.40;;;;;;5080330;28;20028;-87
2022/04/12 07:44:09;;;;;;;11.75;7.40;;;10.10;77.40;;;;;;5066839;28;20044;-88
2022/04/12 07:46:59;;;;;;;12.38;7.97;;;10.10;77.70;;;;;;5068812;28;20752;-87
2022/04/12 07:54:32;;;;;;;9.83;6.53;;;10.50;77.30;;;;;;5051749;28;20503;-91
2022/04/12 07:57:52;;;;;;;12.48;6.93;;;10.50;77.40;;;;;;5071913;28;20625;-87
2022/04/12 08:13:57;;;;;;;11.07;6.53;;;11.10;73.80;;;;;;4833524;29;20037;-82
2022/04/12 08:46:33;;;;;;;9.82;7.18;;;11.80;71.50;;;;;;4726613;29;20456;-81
2022/04/12 08:50:09;;;;;;;11.30;7.15;;;11.90;71.20;;;;;;4690273;29;20056;-81
2022/04/12 08:53:15;;;;;;;12.00;7.15;;;11.90;71.10;;;;;;4701001;30;20057;-82
2022/04/12 08:56:43;;;;;;;;;;;;;;;;;;;;;
2022/04/12 09:01:07;;;;;;;8.73;7.03;;;12.00;71.00;;;;;;4749630;29;20055;-82
2022/04/12 09:04:27;;;;;;;;;;;;;;;;;;;;;
2022/04/12 09:16:13;;;;;;;11.60;7.45;;;12.30;70.20;;;;;;4893903;29;20507;-80
2022/04/12 09:24:33;;;;;;;9.95;7.47;;;12.40;70.00;;;;;;4884562;29;20039;-80
2022/04/12 09:27:57;;;;;;;8.98;7.45;;;12.50;70.00;;;;;;4895953;28;20144;-81
2022/04/12 10:31:08;;;;;;;13.88;8.77;;;12.90;69.00;;;;;;4964079;28;20038;-80
2022/04/12 11:07:31;;;;;;;12.98;8.93;;;13.20;69.10;;;;;;4786505;29;20100;-85
2022/04/12 11:10:23;;;;;;;11.32;8.30;;;13.30;68.90;;;;;;4825222;29;20501;-81
2022/04/12 11:12:51;;;;;;;10.70;7.90;;;13.30;68.80;;;;;;4832893;29;20042;-82
2022/04/12 11:15:28;;;;;;;10.00;7.30;;;13.30;68.50;;;;;;4898796;28;20132;-81
2022/04/12 11:18:46;;;;;;;11.50;8.07;;;13.30;68.50;;;;;;4988228;28;20062;-80
2022/04/12 11:21:12;;;;;;;;;;;13.30;68.30;;;;;;4985194;28;20064;-84
2022/04/12 11:23:46;;;;;;;9.52;7.43;;;13.40;68.20;;;;;;5045279;28;19912;-84
2022/04/12 11:26:44;;;;;;;10.05;7.55;;;13.40;68.00;;;;;;5027720;28;20033;-84
2022/04/12 11:29:12;;;;;;;13.57;7.68;;;13.40;68.00;;;;;;5027958;28;20048;-85
2022/04/12 11:31:50;;;;;;;12.43;7.28;;;13.40;67.90;;;;;;5046139;28;20055;-85
2022/04/12 11:34:18;;;;;;;9.95;7.80;;;13.40;68.00;;;;;;5033138;28;20047;-82
2022/04/12 11:36:55;;;;;;;11.93;8.02;;;13.50;68.20;;;;;;5059334;28;20036;-79
2022/04/12 11:39:30;;;;;;;12.23;8.23;;;13.50;68.30;;;;;;5045506;28;20030;-80
2022/04/12 11:42:01;;;;;;;10.85;7.65;;;13.50;68.30;;;;;;5046213;28;20035;-78
2022/04/12 11:44:27;;;;;;;11.73;8.48;;;13.50;68.20;;;;;;5043721;28;20028;-79
2022/04/12 11:46:57;;;;;;;12.00;8.13;;;13.50;68.20;;;;;;5062837;28;20387;-78
2022/04/12 11:49:28;;;;;;;16.92;9.30;;;13.60;68.20;;;;;;5044146;28;20036;-78
2022/04/12 11:51:56;;;;;;;14.18;8.70;;;13.60;68.30;;;;;;5045020;28;20037;-80
2022/04/12 11:54:31;;;;;;;13.90;10.40;;;13.50;68.30;;;;;;5059188;28;20075;-81
2022/04/12 11:57:13;;;;;;;15.00;10.85;;;13.60;68.60;;;;;;5041119;28;20036;-79
2022/04/12 11:59:59;;;;;;;17.50;10.23;;;13.60;68.90;;;;;;5060421;28;20090;-80
2022/04/12 12:02:28;;;;;;;17.92;11.20;;;13.60;68.90;;;;;;5064155;28;20024;-80
2022/04/12 12:05:02;;;;;;;15.25;11.52;;;13.60;69.00;;;;;;5046101;28;20048;-79
2022/04/12 12:07:29;;;;;;;19.55;12.70;;;13.60;69.10;;;;;;5081365;28;20032;-78
2022/04/12 12:10:00;;;;;;;21.77;12.48;;;13.70;69.40;;;;;;5064234;28;20037;-80
2022/04/12 12:12:37;;;;;;;18.70;12.95;;;13.70;69.40;;;;;;5064798;28;20036;-79
2022/04/12 12:15:16;;;;;;;21.63;13.50;;;13.70;69.50;;;;;;5064370;28;20032;-79
2022/04/12 12:17:45;;;;;;;20.23;12.77;;;13.70;69.40;;;;;;5063855;28;20107;-80
2022/04/12 12:20:13;;;;;;;23.48;13.55;;;13.70;69.50;;;;;;5046195;28;20044;-81
2022/04/12 12:22:41;;;;;;;19.67;12.90;;;13.70;69.50;;;;;;5030026;28;20064;-81
2022/04/12 12:25:07;;;;;;;23.10;13.35;;;13.70;69.50;;;;;;5047299;28;20045;-81
2022/04/12 12:27:38;;;;;;;19.05;12.63;;;13.80;69.70;;;;;;5065222;28;20056;-79
2022/04/12 12:30:15;;;;;;;20.30;13.45;;;13.80;69.70;;;;;;5028387;28;20028;-81
2022/04/12 12:32:43;;;;;;;25.20;13.98;;;13.80;69.70;;;;;;5065055;28;20028;-79
2022/04/12 12:35:15;;;;;;;21.88;12.98;;;13.80;69.50;;;;;;5064817;28;20041;-78
2022/04/12 12:37:43;;;;;;;18.70;11.73;;;13.80;69.40;;;;;;5079189;28;20031;-79
2022/04/12 12:40:24;;;;;;;22.15;12.43;;;13.80;69.30;;;;;;5063905;28;20564;-81
2022/04/12 12:42:51;;;;;;;20.08;12.32;;;13.80;69.30;;;;;;5030358;28;20041;-80
2022/04/12 12:45:23;;;;;;;17.73;11.77;;;13.80;69.40;;;;;;5045977;28;20044;-80
2022/04/12 12:47:53;;;;;;;18.50;12.23;;;13.80;69.50;;;;;;5043344;28;20032;-80
2022/04/12 12:50:22;;;;;;;19.42;12.15;;;13.80;69.50;;;;;;5064264;28;20033;-80
2022/04/12 12:52:49;;;;;;;18.35;11.02;;;13.90;69.50;;;;;;5046637;28;20043;-80
2022/04/12 12:55:19;;;;;;;26.08;12.00;;;13.90;69.40;;;;;;5062797;28;20036;-81
2022/04/12 12:57:51;;;;;;;16.58;11.38;;;13.90;69.30;;;;;;5066102;28;20510;-81
2022/04/12 13:00:19;;;;;;;16.23;10.77;;;13.90;69.30;;;;;;5068500;28;20036;-81
2022/04/12 13:02:45;;;;;;;18.70;11.48;;;14.00;69.30;;;;;;5069058;28;20016;-81
2022/04/12 13:05:17;;;;;;;14.38;10.35;;;14.00;69.30;;;;;;5083463;28;20127;-81
2022/04/12 13:07:43;;;;;;;20.10;11.82;;;13.90;69.30;;;;;;5083747;28;20040;-81
2022/04/12 13:10:17;;;;;;;19.10;12.70;;;14.00;69.40;;;;;;5083128;28;20537;-81
2022/04/12 13:12:45;;;;;;;19.63;10.65;;;13.90;69.50;;;;;;5068701;28;20116;-81
2022/04/12 13:15:13;;;;;;;18.20;11.80;;;13.90;70.10;;;;;;5049890;28;20445;-80
2022/04/12 13:17:40;;;;;;;18.00;10.88;;;14.00;69.60;;;;;;5069462;28;20418;-80
2022/04/12 13:20:11;;;;;;;16.58;10.57;;;14.00;69.50;;;;;;5066870;28;20132;-80
2022/04/12 13:22:38;;;;;;;17.10;10.32;;;13.90;69.50;;;;;;5067801;28;20033;-80
2022/04/12 13:25:05;;;;;;;18.25;10.77;;;14.00;69.50;;;;;;5049822;28;20040;-80
2022/04/12 13:27:31;;;;;;;15.45;10.82;;;14.00;69.60;;;;;;5067733;28;20037;-80
2022/04/12 13:29:57;;;;;;;16.00;10.18;;;14.00;69.50;;;;;;5050077;28;20038;-80
2022/04/12 13:32:24;;;;;;;17.92;10.70;;;14.00;69.50;;;;;;5067866;28;20064;-79
2022/04/12 13:34:50;;;;;;;17.02;10.10;;;14.00;69.50;;;;;;5067119;28;20040;-79
2022/04/12 13:37:17;;;;;;;16.73;11.20;;;14.00;69.50;;;;;;5049294;28;20040;-79
2022/04/12 13:39:43;;;;;;;12.75;9.30;;;14.00;69.40;;;;;;5033122;28;20039;-78
2022/04/12 13:42:09;;;;;;;15.98;10.10;;;14.00;69.30;;;;;;5033234;28;20078;-79
2022/04/12 13:44:36;;;;;;;13.43;10.13;;;14.00;69.40;;;;;;5067204;28;20031;-78
2022/04/12 13:47:04;;;;;;;14.10;10.43;;;14.00;69.40;;;;;;5067833;28;20033;-79
2022/04/12 13:49:32;;;;;;;12.95;9.60;;;14.00;69.40;;;;;;5067302;28;20456;-80
2022/04/12 13:51:58;;;;;;;14.70;9.70;;;14.00;69.40;;;;;;5032790;28;20036;-84
2022/04/12 13:54:26;;;;;;;14.95;9.88;;;13.90;69.30;;;;;;5067429;28;20063;-89
2022/04/12 13:56:53;;;;;;;12.40;9.55;;;14.00;69.30;;;;;;5039508;28;20033;-91
2022/04/12 13:59:19;;;;;;;12.95;9.57;;;14.00;69.40;;;;;;5018135;28;20037;-87
2022/04/12 14:01:45;;;;;;;13.00;9.80;;;14.00;69.30;;;;;;5051661;28;20040;-80
2022/04/12 14:04:11;;;;;;;13.82;9.45;;;13.90;69.20;;;;;;5045456;28;20032;-81
2022/04/12 14:06:39;;;;;;;12.07;9.57;;;13.90;69.30;;;;;;5070355;28;20037;-84
2022/04/12 14:09:05;;;;;;;16.55;11.70;;;14.00;69.50;;;;;;5069100;28;20032;-85
2022/04/12 14:11:31;;;;;;;15.52;11.02;;;14.00;69.20;;;;;;5070482;28;20322;-89
2022/04/12 14:13:57;;;;;;;14.40;11.48;;;13.80;68.70;;;;;;5053922;28;20055;-85
2022/04/12 14:16:25;;;;;;;14.57;10.98;;;13.70;68.90;;;;;;5039966;28;20041;-85
2022/04/12 14:18:52;;;;;;;15.93;10.32;;;13.60;69.00;;;;;;5067012;28;20154;-85
2022/04/12 14:21:18;;;;;;;17.10;11.75;;;13.50;69.30;;;;;;5032721;28;20020;-79
2022/04/12 14:23:44;;;;;;;15.95;11.60;;;13.40;69.50;;;;;;5067497;28;20549;-78
2022/04/12 14:26:12;;;;;;;15.73;10.45;;;13.30;69.60;;;;;;5066844;28;20077;-78
2022/04/12 14:28:38;;;;;;;14.93;11.10;;;13.30;69.80;;;;;;5046066;28;20507;-78
2022/04/12 14:31:07;;;;;;;14.02;10.77;;;13.20;69.90;;;;;;5086865;28;20460;-78
2022/04/12 14:33:35;;;;;;;13.45;10.80;;;13.10;70.10;;;;;;5068166;28;20127;-79
2022/04/12 14:36:03;;;;;;;13.40;10.80;;;13.00;70.40;;;;;;5048851;28;20404;-79
2022/04/12 14:38:29;;;;;;;14.57;10.55;;;12.90;70.50;;;;;;5086745;28;20032;-79
2022/04/12 14:40:58;;;;;;;14.98;10.90;;;12.90;70.80;;;;;;5085139;28;20039;-80
2022/04/12 14:43:25;;;;;;;15.38;10.80;;;12.90;70.80;;;;;;5068385;28;20032;-79
2022/04/12 14:45:52;;;;;;;18.55;11.00;;;12.80;70.80;;;;;;5069237;28;20067;-79
2022/04/12 14:48:19;;;;;;;15.75;10.73;;;12.80;70.90;;;;;;5081443;28;20493;-79
2022/04/12 14:50:47;;;;;;;15.02;10.15;;;12.80;71.10;;;;;;5069089;28;20073;-79
2022/04/12 14:53:14;;;;;;;15.88;10.25;;;12.70;71.00;;;;;;5086382;28;20032;-79
2022/04/12 14:55:42;;;;;;;16.10;10.55;;;12.70;71.10;;;;;;5047106;28;20032;-80
2022/04/12 14:58:09;;;;;;;13.20;9.48;;;12.70;71.20;;;;;;5086582;28;20078;-80
2022/04/12 15:00:38;;;;;;;13.15;10.07;;;12.70;71.20;;;;;;5086209;28;20417;-79
2022/04/12 15:03:05;;;;;;;14.70;9.98;;;12.60;71.30;;;;;;5087393;28;20038;-79
2022/04/12 15:05:31;;;;;;;13.30;9.65;;;12.60;71.30;;;;;;5068158;28;20044;-78
2022/04/12 15:07:57;;;;;;;13.25;9.68;;;12.50;71.30;;;;;;5050949;28;20046;-79
2022/04/12 15:10:23;;;;;;;12.70;9.13;;;12.40;71.40;;;;;;5068207;28;20032;-80
2022/04/12 15:12:49;;;;;;;11.27;8.95;;;12.40;71.60;;;;;;5102238;28;20032;-78
2022/04/12 15:15:15;;;;;;;12.90;8.82;;;12.50;72.00;;;;;;5086070;28;20082;-83
2022/04/12 15:17:41;;;;;;;12.80;8.60;;;12.50;72.10;;;;;;5068955;28;20044;-79
2022/04/12 15:20:11;;;;;;;12.80;9.48;;;12.50;72.20;;;;;;5086054;28;20032;-80
2022/04/12 15:22:38;;;;;;;10.57;8.63;;;12.60;72.20;;;;;;5051613;28;20123;-79
2022/04/12 15:25:05;;;;;;;11.43;7.80;;;12.60;72.10;;;;;;5086886;28;20040;-79
2022/04/12 15:27:31;;;;;;;8.55;7.60;;;12.60;72.10;;;;;;5086244;28;20036;-79
2022/04/12 15:29:57;;;;;;;10.80;8.13;;;12.60;72.00;;;;;;5086412;28;20038;-80
2022/04/12 15:32:23;;;;;;;9.98;7.85;;;12.60;72.10;;;;;;5086611;28;20044;-79
2022/04/12 15:34:49;;;;;;;9.82;7.78;;;12.60;72.10;;;;;;5064414;28;20036;-79
2022/04/12 15:37:15;;;;;;;11.20;7.35;;;12.60;72.00;;;;;;5050544;28;20062;-82